createdAt,value
2023-10-29T00:00:42.157Z,7.02
2023-10-29T00:03:30.498Z,7.09
2023-10-29T00:05:58.727Z,7.07
2023-10-29T00:08:27.194Z,7.09
2023-10-29T00:10:56.166Z,7.03
2023-10-29T00:13:26.715Z,7.02
2023-10-29T00:15:56.054Z,7.07
2023-10-29T00:18:24.392Z,7.08
2023-10-29T00:20:52.491Z,7.07
2023-10-29T00:23:20.874Z,6.99
2023-10-29T00:25:48.886Z,7.03
2023-10-29T00:28:17.145Z,7.04
2023-10-29T00:30:45.176Z,7.04
2023-10-29T00:33:14.866Z,7.06
2023-10-29T00:35:42.881Z,7.01
2023-10-29T00:38:11.223Z,6.95
2023-10-29T00:40:39.074Z,6.98
2023-10-29T00:43:07.366Z,6.99
2023-10-29T00:45:35.753Z,6.97
2023-10-29T00:48:04.160Z,6.96
2023-10-29T00:50:33.952Z,6.99
2023-10-29T00:53:02.244Z,6.94
2023-10-29T00:55:31.240Z,6.86
2023-10-29T00:57:59.622Z,6.89
2023-10-29T01:00:27.685Z,6.86
2023-10-29T01:02:56.141Z,6.81
2023-10-29T01:05:24.374Z,6.88
2023-10-29T01:07:54.755Z,6.93
2023-10-29T01:10:22.833Z,6.97
2023-10-29T01:12:51.205Z,7.00
2023-10-29T01:15:19.306Z,6.99
2023-10-29T01:17:47.639Z,6.93
2023-10-29T01:20:15.687Z,6.89
2023-10-29T01:22:44.281Z,6.96
2023-10-29T01:25:13.928Z,7.05
2023-10-29T01:27:43.028Z,7.04
2023-10-29T01:30:11.699Z,7.00
2023-10-29T01:32:40.490Z,7.08
2023-10-29T01:35:08.692Z,7.12
2023-10-29T01:37:37.019Z,7.09
2023-10-29T01:40:05.307Z,7.09
2023-10-29T01:42:34.930Z,7.12
2023-10-29T01:45:05.203Z,7.08
2023-10-29T01:47:33.527Z,7.03
2023-10-29T01:50:01.546Z,6.99
2023-10-29T01:52:29.773Z,7.00
2023-10-29T01:54:58.570Z,6.99
2023-10-29T01:57:26.914Z,6.94
2023-10-29T01:59:56.552Z,6.81
2023-10-29T02:02:24.865Z,6.84
2023-10-29T02:04:52.870Z,6.84
2023-10-29T02:07:21.177Z,6.85
2023-10-29T02:09:49.116Z,6.88
2023-10-29T02:12:17.460Z,6.87
2023-10-29T02:14:45.715Z,6.82
2023-10-29T02:17:15.601Z,6.75
2023-10-29T02:19:43.899Z,6.69
2023-10-29T02:22:13.583Z,6.66
2023-10-29T02:24:41.729Z,6.66
2023-10-29T02:27:09.968Z,6.57
2023-10-29T02:29:38.046Z,6.63
2023-10-29T02:32:06.660Z,6.57
2023-10-29T02:34:34.734Z,6.60
2023-10-29T02:37:03.068Z,6.62
2023-10-29T02:39:32.460Z,6.61
2023-10-29T02:42:00.889Z,6.51
2023-10-29T02:44:29.151Z,6.58
2023-10-29T02:46:57.465Z,6.52
2023-10-29T02:49:25.533Z,6.26
2023-10-29T02:51:53.813Z,6.53
2023-10-29T02:54:21.972Z,6.53
2023-10-29T02:56:51.685Z,6.49
2023-10-29T02:59:19.686Z,6.48
2023-10-29T03:01:47.934Z,6.57
2023-10-29T03:04:16.058Z,6.66
2023-10-29T03:06:44.468Z,6.70
2023-10-29T03:09:12.607Z,6.77
2023-10-29T03:11:40.979Z,6.74
2023-10-29T03:14:10.489Z,6.66
2023-10-29T03:16:38.794Z,6.57
2023-10-29T03:19:06.876Z,6.48
2023-10-29T03:21:35.226Z,6.52
2023-10-29T03:24:03.213Z,6.50
2023-10-29T03:26:31.586Z,6.54
2023-10-29T03:28:59.597Z,6.45
2023-10-29T03:31:39.813Z,6.50
2023-10-29T03:34:09.237Z,6.48
2023-10-29T03:36:37.597Z,6.54
2023-10-29T03:39:06.685Z,6.57
2023-10-29T03:41:34.993Z,6.62
2023-10-29T03:44:03.169Z,6.59
2023-10-29T03:46:31.502Z,6.46
2023-10-29T03:49:01.205Z,6.54
2023-10-29T03:51:29.818Z,6.54
2023-10-29T03:53:57.884Z,6.53
2023-10-29T03:56:26.232Z,6.47
2023-10-29T03:58:54.323Z,6.55
2023-10-29T04:01:22.645Z,6.60
2023-10-29T04:03:51.541Z,6.50
2023-10-29T04:06:21.243Z,6.60
2023-10-29T04:08:49.304Z,6.50
2023-10-29T04:11:17.563Z,6.49
2023-10-29T04:13:45.683Z,6.51
2023-10-29T04:16:14.628Z,6.55
2023-10-29T04:18:42.729Z,6.51
2023-10-29T04:21:11.178Z,6.43
2023-10-29T04:23:41.034Z,6.49
2023-10-29T04:26:09.349Z,6.47
2023-10-29T04:28:37.708Z,6.51
2023-10-29T04:31:06.362Z,6.56
2023-10-29T04:33:34.926Z,6.55
2023-10-29T04:36:03.362Z,6.46
2023-10-29T04:38:31.536Z,6.48
2023-10-29T04:41:01.309Z,6.43
2023-10-29T04:43:29.320Z,6.43
2023-10-29T04:45:58.336Z,6.46
2023-10-29T04:48:26.412Z,6.46
2023-10-29T04:50:54.812Z,6.46
2023-10-29T04:53:22.868Z,6.51
2023-10-29T04:55:51.235Z,6.53
2023-10-29T04:58:20.668Z,6.61
2023-10-29T05:00:49.079Z,6.53
2023-10-29T05:03:17.239Z,6.47
2023-10-29T05:05:46.715Z,6.46
2023-10-29T05:08:15.730Z,6.43
2023-10-29T05:10:45.315Z,6.45
2023-10-29T05:13:13.344Z,6.56
2023-10-29T05:15:42.964Z,6.48
2023-10-29T05:18:11.014Z,6.53
2023-10-29T05:20:39.585Z,6.46
2023-10-29T05:23:08.593Z,6.41
2023-10-29T05:25:40.051Z,6.37
2023-10-29T05:28:08.059Z,6.43
2023-10-29T05:30:36.490Z,6.47
2023-10-29T05:33:05.907Z,6.41
2023-10-29T05:35:34.328Z,6.43
2023-10-29T05:38:02.410Z,6.40
2023-10-29T05:40:31.184Z,6.49
2023-10-29T05:42:59.286Z,6.57
2023-10-29T05:45:28.147Z,6.59
2023-10-29T05:47:56.750Z,6.50
2023-10-29T05:50:27.087Z,6.50
2023-10-29T05:52:55.178Z,6.55
2023-10-29T05:55:23.891Z,6.48
2023-10-29T05:57:51.973Z,6.46
2023-10-29T06:00:20.374Z,6.54
2023-10-29T06:02:48.524Z,6.56
2023-10-29T06:05:16.936Z,6.49
2023-10-29T06:07:46.374Z,6.57
2023-10-29T06:10:16.254Z,6.57
2023-10-29T06:12:44.302Z,6.52
2023-10-29T06:15:13.261Z,6.54
2023-10-29T06:17:42.951Z,6.51
2023-10-29T06:20:12.747Z,6.56
2023-10-29T06:22:40.756Z,6.70
2023-10-29T06:25:11.861Z,6.83
2023-10-29T06:27:39.825Z,6.84
2023-10-29T06:30:09.158Z,6.80
2023-10-29T06:32:37.460Z,6.73
2023-10-29T06:35:06.138Z,6.78
2023-10-29T06:37:34.248Z,6.83
2023-10-29T06:40:02.635Z,6.74
2023-10-29T06:42:32.083Z,6.82
2023-10-29T06:45:00.408Z,6.76
2023-10-29T06:47:28.442Z,6.75
2023-10-29T06:49:57.059Z,6.78
2023-10-29T06:52:25.373Z,6.83
2023-10-29T06:54:54.815Z,6.78
2023-10-29T06:57:22.828Z,6.81
2023-10-29T06:59:53.322Z,6.78
2023-10-29T07:02:21.779Z,6.67
2023-10-29T07:04:50.530Z,6.82
2023-10-29T07:07:19.327Z,6.98
2023-10-29T07:09:47.589Z,7.16
2023-10-29T07:12:17.211Z,7.24
2023-10-29T07:14:46.717Z,7.38
2023-10-29T07:17:16.290Z,7.31
2023-10-29T07:19:44.626Z,7.56
2023-10-29T07:22:12.643Z,7.55
2023-10-29T07:24:40.954Z,7.54
2023-10-29T07:27:09.317Z,7.48
2023-10-29T07:29:38.780Z,7.65
2023-10-29T07:32:07.052Z,7.56
2023-10-29T07:34:36.972Z,7.37
2023-10-29T07:37:05.172Z,7.23
2023-10-29T07:39:33.423Z,7.30
2023-10-29T07:42:02.669Z,7.08
2023-10-29T07:44:31.054Z,6.90
2023-10-29T07:46:59.633Z,7.00
2023-10-29T07:49:28.023Z,7.12
2023-10-29T07:51:57.452Z,7.16
2023-10-29T07:54:25.687Z,7.12
2023-10-29T07:56:54.613Z,7.12
2023-10-29T07:59:22.872Z,7.12
2023-10-29T08:01:51.122Z,7.17
2023-10-29T08:04:19.511Z,7.03
2023-10-29T08:06:47.609Z,7.09
2023-10-29T08:09:17.980Z,7.07
2023-10-29T08:11:46.164Z,7.05
2023-10-29T08:14:14.444Z,7.16
2023-10-29T08:16:42.724Z,7.20
2023-10-29T08:19:11.177Z,7.33
2023-10-29T08:21:39.253Z,7.42
2023-10-29T08:24:07.984Z,7.27
2023-10-29T08:26:37.500Z,7.34
2023-10-29T08:29:05.944Z,7.48
2023-10-29T08:31:34.064Z,7.32
2023-10-29T08:34:02.399Z,7.52
2023-10-29T08:36:30.640Z,7.61
2023-10-29T08:38:59.076Z,7.80
2023-10-29T08:41:27.124Z,7.64
2023-10-29T08:43:57.334Z,7.67
2023-10-29T08:46:25.662Z,7.70
2023-10-29T08:48:54.129Z,7.68
2023-10-29T08:51:22.254Z,7.54
2023-10-29T08:53:51.078Z,7.56
2023-10-29T08:56:19.046Z,7.25
2023-10-29T08:58:47.455Z,7.27
2023-10-29T09:01:18.711Z,7.20
2023-10-29T09:03:47.191Z,7.13
2023-10-29T09:06:15.443Z,7.26
2023-10-29T09:08:43.864Z,7.39
2023-10-29T09:11:14.913Z,7.19
2023-10-29T09:13:43.181Z,7.20
2023-10-29T09:16:11.981Z,7.18
2023-10-29T09:18:42.075Z,7.27
2023-10-29T09:21:10.442Z,7.33
2023-10-29T09:23:39.037Z,7.37
2023-10-29T09:26:08.363Z,7.26
2023-10-29T09:28:36.867Z,7.25
2023-10-29T09:31:05.492Z,7.42
2023-10-29T09:33:33.798Z,7.36
2023-10-29T09:36:04.272Z,7.51
2023-10-29T09:38:32.599Z,7.37
2023-10-29T09:41:00.673Z,7.50
2023-10-29T09:43:33.994Z,7.56
2023-10-29T09:46:05.498Z,7.56
2023-10-29T09:48:34.170Z,7.53
2023-10-29T09:51:04.785Z,7.26
2023-10-29T09:53:34.114Z,7.45
2023-10-29T09:56:02.143Z,7.52
2023-10-29T09:58:30.467Z,7.42
2023-10-29T10:00:59.468Z,7.58
2023-10-29T10:03:28.621Z,7.63
2023-10-29T10:05:57.170Z,7.56
2023-10-29T10:08:27.912Z,7.71
2023-10-29T10:10:56.497Z,7.57
2023-10-29T10:13:37.460Z,7.63
2023-10-29T10:16:10.234Z,7.64
2023-10-29T10:18:55.432Z,7.57
2023-10-29T10:21:24.718Z,7.84
2023-10-29T10:23:56.369Z,7.66
2023-10-29T10:26:31.403Z,7.99
2023-10-29T10:29:00.937Z,8.11
2023-10-29T10:31:30.430Z,7.97
2023-10-29T10:34:12.113Z,7.88
2023-10-29T10:36:40.413Z,8.06
2023-10-29T10:39:10.804Z,8.08
2023-10-29T10:41:43.781Z,8.10
2023-10-29T10:44:13.039Z,8.17
2023-10-29T10:46:43.780Z,8.15
2023-10-29T10:49:12.896Z,8.11
2023-10-29T10:51:42.082Z,8.08
2023-10-29T10:54:11.924Z,8.10
2023-10-29T10:56:40.369Z,8.18
2023-10-29T10:59:11.154Z,8.39
2023-10-29T11:01:39.924Z,8.10
2023-10-29T11:04:09.622Z,8.32
2023-10-29T11:06:39.027Z,8.34
2023-10-29T11:09:13.535Z,8.33
2023-10-29T11:11:47.232Z,8.25
2023-10-29T11:14:16.126Z,8.14
2023-10-29T11:16:48.420Z,8.19
2023-10-29T11:19:37.176Z,8.30
2023-10-29T11:22:15.051Z,8.09
2023-10-29T11:24:43.609Z,8.20
2023-10-29T11:27:30.303Z,8.02
2023-10-29T11:30:13.938Z,8.29
2023-10-29T11:32:42.953Z,8.28
2023-10-29T11:35:21.876Z,8.16
2023-10-29T11:37:50.601Z,8.21
2023-10-29T11:40:32.775Z,8.15
2023-10-29T11:43:15.926Z,8.17
2023-10-29T11:45:53.523Z,8.08
2023-10-29T11:48:22.044Z,7.88
2023-10-29T11:51:17.859Z,8.12
2023-10-29T11:53:45.929Z,8.00
2023-10-29T11:56:14.929Z,7.97
2023-10-29T11:58:42.968Z,8.09
2023-10-29T12:01:12.831Z,8.15
2023-10-29T12:03:40.991Z,8.34
2023-10-29T12:06:09.323Z,8.39
2023-10-29T12:08:37.392Z,8.21
2023-10-29T12:11:07.820Z,8.25
2023-10-29T12:13:43.290Z,8.17
2023-10-29T12:16:14.682Z,8.16
2023-10-29T12:18:42.934Z,8.33
2023-10-29T12:21:11.962Z,8.23
2023-10-29T12:23:40.120Z,8.30
2023-10-29T12:26:10.981Z,8.37
2023-10-29T12:28:39.450Z,8.44
2023-10-29T12:31:13.063Z,8.38
2023-10-29T12:33:42.432Z,8.50
2023-10-29T12:36:16.508Z,8.40
2023-10-29T12:38:44.801Z,8.43
2023-10-29T12:41:16.752Z,8.51
2023-10-29T12:43:46.523Z,8.57
2023-10-29T12:46:15.266Z,8.59
2023-10-29T12:49:01.138Z,8.58
2023-10-29T12:51:31.393Z,8.63
2023-10-29T12:54:12.576Z,8.52
2023-10-29T12:56:50.736Z,8.67
2023-10-29T12:59:19.426Z,8.54
2023-10-29T13:01:58.061Z,8.61
2023-10-29T13:04:28.551Z,8.66
2023-10-29T13:06:58.635Z,8.71
2023-10-29T13:09:29.688Z,8.91
2023-10-29T13:11:58.358Z,8.80
2023-10-29T13:14:26.543Z,8.81
2023-10-29T13:16:55.389Z,8.74
2023-10-29T13:19:23.549Z,8.95
2023-10-29T13:21:53.820Z,9.12
2023-10-29T13:24:22.462Z,9.12
2023-10-29T13:26:52.325Z,9.12
2023-10-29T13:29:21.098Z,9.23
2023-10-29T13:31:49.381Z,9.30
2023-10-29T13:34:17.401Z,9.32
2023-10-29T13:36:45.982Z,9.29
2023-10-29T13:39:20.190Z,9.34
2023-10-29T13:41:51.842Z,9.32
2023-10-29T13:44:21.377Z,9.30
2023-10-29T13:46:50.173Z,9.35
2023-10-29T13:49:18.233Z,9.48
2023-10-29T13:51:48.039Z,9.56
2023-10-29T13:54:17.514Z,9.73
2023-10-29T13:56:45.901Z,9.67
2023-10-29T13:59:15.615Z,9.78
2023-10-29T14:01:44.255Z,9.77
2023-10-29T14:04:12.773Z,9.81
2023-10-29T14:06:41.135Z,9.86
2023-10-29T14:09:10.142Z,9.80
2023-10-29T14:11:40.023Z,9.88
2023-10-29T14:14:08.713Z,9.92
2023-10-29T14:16:38.513Z,9.97
2023-10-29T14:19:07.247Z,10.03
2023-10-29T14:21:35.841Z,10.13
2023-10-29T14:24:04.961Z,10.14
2023-10-29T14:26:33.838Z,10.20
2023-10-29T14:29:03.201Z,10.25
2023-10-29T14:31:31.521Z,10.25
2023-10-29T14:33:59.560Z,10.32
2023-10-29T14:36:27.946Z,10.35
2023-10-29T14:38:56.187Z,10.34
2023-10-29T14:41:24.472Z,10.27
2023-10-29T14:43:52.487Z,10.40
2023-10-29T14:46:22.187Z,10.43
2023-10-29T14:48:50.539Z,10.48
2023-10-29T14:51:18.987Z,10.50
2023-10-29T14:53:47.198Z,10.57
2023-10-29T14:56:15.623Z,10.51
2023-10-29T14:58:43.680Z,10.48
2023-10-29T15:01:12.149Z,10.48
2023-10-29T15:03:41.721Z,10.45
2023-10-29T15:06:11.143Z,10.41
2023-10-29T15:08:39.509Z,10.44
2023-10-29T15:11:08.325Z,10.43
2023-10-29T15:13:46.497Z,10.40
2023-10-29T15:16:16.722Z,10.41
2023-10-29T15:18:46.516Z,10.30
2023-10-29T15:21:16.509Z,10.27
2023-10-29T15:23:44.620Z,10.26
2023-10-29T15:26:17.667Z,10.31
2023-10-29T15:28:45.918Z,10.21
2023-10-29T15:31:14.489Z,10.30
2023-10-29T15:33:42.641Z,10.23
2023-10-29T15:36:13.121Z,10.28
2023-10-29T15:38:42.774Z,10.30
2023-10-29T15:41:11.250Z,10.25
2023-10-29T15:43:39.512Z,10.22
2023-10-29T15:46:09.693Z,10.11
2023-10-29T15:48:38.802Z,10.13
2023-10-29T15:51:10.024Z,10.17
2023-10-29T15:53:39.972Z,10.09
2023-10-29T15:56:09.019Z,10.08
2023-10-29T15:58:37.082Z,10.15
2023-10-29T16:01:05.640Z,10.19
2023-10-29T16:03:33.814Z,10.23
2023-10-29T16:06:08.370Z,10.17
2023-10-29T16:08:39.758Z,10.09
2023-10-29T16:11:10.122Z,10.12
2023-10-29T16:13:39.187Z,10.12
2023-10-29T16:16:10.253Z,10.10
2023-10-29T16:18:38.649Z,10.07
2023-10-29T16:21:07.093Z,10.06
2023-10-29T16:23:35.252Z,10.03
2023-10-29T16:26:03.593Z,10.00
2023-10-29T16:28:33.067Z,10.03
2023-10-29T16:31:01.393Z,10.01
2023-10-29T16:33:29.553Z,10.04
2023-10-29T16:35:59.748Z,10.06
2023-10-29T16:38:29.739Z,10.09
2023-10-29T16:41:01.824Z,10.07
2023-10-29T16:43:30.541Z,10.07
2023-10-29T16:46:00.502Z,10.00
2023-10-29T16:48:29.071Z,10.00
2023-10-29T16:51:03.287Z,10.00
2023-10-29T16:53:32.492Z,10.05
2023-10-29T16:56:04.199Z,10.00
2023-10-29T16:58:32.818Z,9.92
2023-10-29T17:01:03.170Z,9.57
2023-10-29T17:03:31.744Z,9.80
2023-10-29T17:06:00.447Z,9.79
2023-10-29T17:08:29.296Z,9.77
2023-10-29T17:11:01.333Z,9.78
2023-10-29T17:13:31.317Z,9.77
2023-10-29T17:16:00.645Z,9.58
2023-10-29T17:18:30.914Z,9.79
2023-10-29T17:21:01.300Z,9.79
2023-10-29T17:23:29.930Z,9.74
2023-10-29T17:25:59.107Z,9.74
2023-10-29T17:28:27.580Z,9.64
2023-10-29T17:30:56.745Z,9.57
2023-10-29T17:33:26.768Z,9.67
2023-10-29T17:35:56.808Z,9.68
2023-10-29T17:38:25.216Z,9.65
2023-10-29T17:40:53.973Z,9.67
2023-10-29T17:43:25.717Z,9.64
2023-10-29T17:45:54.448Z,9.67
2023-10-29T17:48:22.908Z,9.67
2023-10-29T17:50:57.722Z,9.68
2023-10-29T17:53:25.880Z,9.67
2023-10-29T17:55:54.347Z,9.60
2023-10-29T17:58:22.921Z,9.57
2023-10-29T18:00:51.838Z,9.53
2023-10-29T18:03:20.066Z,9.40
2023-10-29T18:05:48.873Z,9.44
2023-10-29T18:08:21.787Z,9.46
2023-10-29T18:10:51.156Z,9.30
2023-10-29T18:13:19.355Z,9.26
2023-10-29T18:15:48.832Z,9.30
2023-10-29T18:18:18.083Z,9.29
2023-10-29T18:20:46.965Z,9.30
2023-10-29T18:23:15.395Z,9.27
2023-10-29T18:25:46.098Z,9.16
2023-10-29T18:28:14.300Z,9.11
2023-10-29T18:30:43.392Z,9.12
2023-10-29T18:33:11.811Z,9.07
2023-10-29T18:35:40.335Z,9.06
2023-10-29T18:38:08.963Z,9.23
2023-10-29T18:40:38.161Z,9.41
2023-10-29T18:43:08.111Z,9.49
2023-10-29T18:45:41.571Z,9.56
2023-10-29T18:48:10.028Z,9.51
2023-10-29T18:50:38.961Z,9.35
2023-10-29T18:53:07.251Z,9.21
2023-10-29T18:55:37.110Z,9.23
2023-10-29T18:58:07.779Z,9.34
2023-10-29T19:00:40.962Z,9.40
2023-10-29T19:03:12.913Z,9.53
2023-10-29T19:05:42.649Z,9.73
2023-10-29T19:08:10.773Z,9.79
2023-10-29T19:10:39.222Z,9.82
2023-10-29T19:13:08.960Z,9.83
2023-10-29T19:15:37.651Z,9.72
2023-10-29T19:18:06.885Z,9.74
2023-10-29T19:20:35.395Z,9.73
2023-10-29T19:23:03.613Z,9.66
2023-10-29T19:25:36.782Z,9.55
2023-10-29T19:28:06.285Z,9.46
2023-10-29T19:30:39.918Z,9.31
2023-10-29T19:33:09.693Z,9.15
2023-10-29T19:35:38.379Z,9.11
2023-10-29T19:38:08.565Z,8.99
2023-10-29T19:40:37.329Z,9.08
2023-10-29T19:43:05.675Z,9.25
2023-10-29T19:45:36.827Z,9.32
2023-10-29T19:48:08.168Z,9.42
2023-10-29T19:50:39.509Z,9.51
2023-10-29T19:53:07.772Z,9.57
2023-10-29T19:55:40.806Z,9.70
2023-10-29T19:58:10.138Z,9.80
2023-10-29T20:00:38.604Z,9.85
2023-10-29T20:03:08.850Z,9.83
2023-10-29T20:05:37.827Z,9.82
2023-10-29T20:08:06.479Z,9.90
2023-10-29T20:10:36.455Z,9.90
2023-10-29T20:13:04.678Z,9.92
2023-10-29T20:15:35.125Z,9.97
2023-10-29T20:18:04.143Z,10.04
2023-10-29T20:20:36.681Z,9.93
2023-10-29T20:23:05.256Z,9.93
2023-10-29T20:25:33.677Z,10.00
2023-10-29T20:28:01.958Z,9.99
2023-10-29T20:30:30.891Z,10.15
2023-10-29T20:32:59.418Z,10.22
2023-10-29T20:35:28.783Z,10.08
2023-10-29T20:37:58.272Z,10.08
2023-10-29T20:40:27.808Z,10.05
2023-10-29T20:42:59.214Z,9.99
2023-10-29T20:45:29.049Z,10.12
2023-10-29T20:47:57.516Z,10.20
2023-10-29T20:50:26.496Z,10.17
2023-10-29T20:52:54.509Z,10.17
2023-10-29T20:55:27.571Z,10.17
2023-10-29T20:57:59.281Z,10.09
2023-10-29T21:00:32.359Z,10.11
2023-10-29T21:03:00.878Z,10.16
2023-10-29T21:05:29.764Z,10.11
2023-10-29T21:07:58.535Z,10.04
2023-10-29T21:10:29.351Z,10.13
2023-10-29T21:12:57.672Z,10.19
2023-10-29T21:15:27.881Z,10.22
2023-10-29T21:17:55.943Z,10.19
2023-10-29T21:20:27.685Z,10.27
2023-10-29T21:22:56.020Z,10.30
2023-10-29T21:25:25.016Z,10.51
2023-10-29T21:27:54.601Z,10.70
2023-10-29T21:30:23.784Z,10.81
2023-10-29T21:32:51.901Z,10.85
2023-10-29T21:35:20.701Z,10.82
2023-10-29T21:37:48.709Z,10.87
2023-10-29T21:40:17.663Z,10.89
2023-10-29T21:42:45.898Z,11.07
2023-10-29T21:45:15.973Z,11.05
2023-10-29T21:47:44.402Z,11.12
2023-10-29T21:50:17.906Z,10.99
2023-10-29T21:52:46.771Z,10.81
2023-10-29T21:55:15.242Z,10.69
2023-10-29T21:57:43.327Z,10.57
2023-10-29T22:00:12.404Z,10.74
2023-10-29T22:02:42.251Z,10.84
2023-10-29T22:05:10.846Z,10.98
2023-10-29T22:07:39.168Z,11.03
2023-10-29T22:10:08.505Z,11.10
2023-10-29T22:12:36.692Z,11.17
2023-10-29T22:15:07.554Z,11.19
2023-10-29T22:17:38.811Z,11.13
2023-10-29T22:20:09.520Z,11.15
2023-10-29T22:22:37.541Z,11.16
2023-10-29T22:25:06.310Z,11.08
2023-10-29T22:27:37.171Z,11.11
2023-10-29T22:30:08.303Z,11.19
2023-10-29T22:32:36.657Z,11.29
2023-10-29T22:35:05.317Z,11.40
2023-10-29T22:37:34.872Z,11.42
2023-10-29T22:40:03.212Z,11.52
2023-10-29T22:42:31.312Z,11.58
2023-10-29T22:44:59.654Z,11.76
2023-10-29T22:47:50.009Z,11.83
2023-10-29T22:50:18.460Z,11.93
2023-10-29T22:58:39.745Z,12.00
2023-10-29T22:59:30.813Z,12.14
2023-10-29T23:01:59.179Z,12.17
2023-10-29T23:04:27.313Z,12.21
2023-10-29T23:06:55.652Z,12.24
2023-10-29T23:09:25.071Z,12.15
2023-10-29T23:11:53.459Z,12.19
2023-10-29T23:14:21.552Z,12.25
2023-10-29T23:16:49.929Z,12.30
2023-10-29T23:19:17.977Z,12.31
2023-10-29T23:21:46.348Z,12.32
2023-10-29T23:24:14.530Z,12.41
2023-10-29T23:26:44.292Z,12.37
2023-10-29T23:29:12.602Z,12.38
2023-10-29T23:31:40.970Z,12.45
2023-10-29T23:34:09.035Z,12.44
2023-10-29T23:36:37.390Z,12.45
2023-10-29T23:39:06.245Z,12.45
2023-10-29T23:41:34.741Z,12.48
2023-10-29T23:44:04.215Z,12.44
2023-10-29T23:46:32.541Z,12.50
2023-10-29T23:49:00.766Z,12.51
2023-10-29T23:51:29.088Z,12.51
2023-10-29T23:53:57.130Z,12.53
2023-10-29T23:56:25.473Z,12.62
2023-10-29T23:58:53.464Z,12.64
